Time;durP1;ratioP1;P1;durP2;ratioP2;P2;SDS_P1;SDS_P2;PMS_P1;PMS_P2;Temp;Humidity;BMP_temperature;BMP_pressure;BME280_temperature;BME280_humidity;BME280_pressure;Samples;Min_cycle;Max_cycle;Signal;HPM_P1;HPM_P2
2022/01/30 00:01:28;;;;;;;9.65;4.55;;;;;;;;;;5103345;28;20044;-69
2022/01/30 00:03:55;;;;;;;12.88;4.97;;;;;;;;;;5085165;28;20127;-70
2022/01/30 00:06:21;;;;;;;19.00;6.30;;;;;;;;;;5107504;28;20047;-70
2022/01/30 00:08:48;;;;;;;17.65;5.43;;;;;;;;;;5085615;28;20093;-70
2022/01/30 00:11:20;;;;;;;13.00;5.45;;;;;;;;;;5109447;28;20043;-70
2022/01/30 00:13:47;;;;;;;21.80;7.38;;;;;;;;;;5110694;28;20547;-70
2022/01/30 00:16:16;;;;;;;23.38;9.57;;;;;;;;;;5110787;28;20509;-71
2022/01/30 00:19:04;;;;;;;23.13;9.88;;;;;;;;;;5090477;28;20097;-70
2022/01/30 00:21:42;;;;;;;44.60;15.73;;;;;;;;;;5106387;28;20048;-70
2022/01/30 00:24:14;;;;;;;28.85;12.15;;;;;;;;;;5084380;28;20047;-70
2022/01/30 00:26:41;;;;;;;26.58;10.27;;;;;;;;;;5103371;28;20106;-70
2022/01/30 00:29:08;;;;;;;19.75;8.75;;;;;;;;;;5111666;28;20460;-70
2022/01/30 00:31:36;;;;;;;20.25;8.80;;;;;;;;;;5105045;28;20049;-70
2022/01/30 00:34:23;;;;;;;21.67;7.93;;;;;;;;;;5086460;28;20066;-70
2022/01/30 00:36:49;;;;;;;19.73;7.00;;;;;;;;;;5100987;28;20435;-70
2022/01/30 00:39:16;;;;;;;27.10;10.93;;;;;;;;;;5110241;28;20125;-70
2022/01/30 00:41:42;;;;;;;31.40;13.98;;;;;;;;;;5102494;28;20084;-70
2022/01/30 00:44:09;;;;;;;26.13;13.25;;;;;;;;;;5107074;28;20077;-70
2022/01/30 00:46:35;;;;;;;24.63;10.98;;;;;;;;;;5104303;28;20048;-70
2022/01/30 00:49:02;;;;;;;18.58;7.88;;;;;;;;;;5103038;28;20194;-70
2022/01/30 00:51:28;;;;;;;26.13;9.10;;;;;;;;;;5106420;28;20460;-70
2022/01/30 00:53:55;;;;;;;22.52;8.10;;;;;;;;;;5099244;28;20044;-70
2022/01/30 00:56:21;;;;;;;70.38;26.05;;;;;;;;;;5107755;28;20083;-70
2022/01/30 00:58:47;;;;;;;40.05;17.35;;;;;;;;;;5095676;28;20089;-70
2022/01/30 01:01:14;;;;;;;35.45;16.25;;;;;;;;;;5110205;28;20039;-70
2022/01/30 01:03:41;;;;;;;28.70;12.00;;;;;;;;;;5090846;28;20051;-72
2022/01/30 01:06:07;;;;;;;20.45;9.25;;;;;;;;;;5111469;28;20556;-70
2022/01/30 01:08:47;;;;;;;18.13;8.60;;;;;;;;;;5108063;28;20047;-70
2022/01/30 01:20:58;;;;;;;22.75;10.75;;;;;;;;;;5083765;28;20443;-70
2022/01/30 01:24:44;;;;;;;20.23;9.52;;;;;;;;;;5112830;28;20423;-70
2022/01/30 01:27:10;;;;;;;26.55;10.77;;;;;;;;;;5100495;28;20040;-70
2022/01/30 01:29:37;;;;;;;18.98;9.00;;;;;;;;;;5111173;28;20083;-70
2022/01/30 01:32:04;;;;;;;21.77;9.63;;;;;;;;;;5098508;28;20504;-70
2022/01/30 01:36:57;;;;;;;23.50;9.18;;;;;;;;;;5097275;28;20083;-70
2022/01/30 01:39:24;;;;;;;24.45;9.45;;;;;;;;;;5110733;28;20085;-70
2022/01/30 01:41:50;;;;;;;27.42;10.75;;;;;;;;;;5099282;28;20048;-70
2022/01/30 01:44:18;;;;;;;26.25;10.63;;;;;;;;;;5108705;28;20078;-70
2022/01/30 01:46:46;;;;;;;24.65;9.82;;;;;;;;;;5100694;28;20049;-70
2022/01/30 01:49:19;;;;;;;26.70;8.93;;;;;;;;;;5104899;28;20040;-70
2022/01/30 01:52:00;;;;;;;21.08;8.20;;;;;;;;;;5100748;28;20049;-70
2022/01/30 01:54:27;;;;;;;20.02;6.88;;;;;;;;;;5107174;28;20089;-70
2022/01/30 01:56:53;;;;;;;26.63;10.68;;;;;;;;;;5098202;28;20087;-70
2022/01/30 01:59:19;;;;;;;21.10;9.20;;;;;;;;;;5103707;28;20097;-70
2022/01/30 02:01:50;;;;;;;22.52;9.00;;;;;;;;;;5100546;28;20048;-70
2022/01/30 02:04:17;;;;;;;18.67;8.00;;;;;;;;;;5101458;28;20040;-70
2022/01/30 02:06:44;;;;;;;17.70;7.88;;;;;;;;;;5106690;28;20105;-70
2022/01/30 02:09:12;;;;;;;17.43;6.97;;;;;;;;;;5111401;28;20048;-70
2022/01/30 02:11:43;;;;;;;18.58;5.80;;;;;;;;;;5105265;28;20052;-70
2022/01/30 02:27:37;;;;;;;18.90;7.65;;;;;;;;;;5109116;28;20462;-70
2022/01/30 02:30:08;;;;;;;21.27;7.85;;;;;;;;;;5115743;28;20494;-70
2022/01/30 02:32:34;;;;;;;19.60;8.20;;;;;;;;;;5108293;28;20396;-70
2022/01/30 02:35:01;;;;;;;16.02;8.48;;;;;;;;;;5115931;28;20052;-69
2022/01/30 02:37:27;;;;;;;24.15;9.35;;;;;;;;;;5107200;28;20092;-69
2022/01/30 02:39:54;;;;;;;20.65;8.02;;;;;;;;;;5115698;28;20445;-70
2022/01/30 02:42:24;;;;;;;15.18;7.05;;;;;;;;;;5099033;28;20098;-70
2022/01/30 02:44:55;;;;;;;20.35;7.38;;;;;;;;;;5115560;28;20487;-70
2022/01/30 02:47:53;;;;;;;11.95;5.50;;;;;;;;;;5105215;28;20488;-70
2022/01/30 02:50:33;;;;;;;17.17;6.38;;;;;;;;;;5115564;28;20048;-70
2022/01/30 02:53:03;;;;;;;20.23;6.57;;;;;;;;;;5102849;28;20552;-70
2022/01/30 02:55:29;;;;;;;16.38;6.40;;;;;;;;;;5114982;28;20048;-70
2022/01/30 02:57:56;;;;;;;20.75;7.32;;;;;;;;;;5102576;28;20564;-69
2022/01/30 03:00:22;;;;;;;19.73;7.07;;;;;;;;;;5115466;28;20052;-69
2022/01/30 03:02:49;;;;;;;16.13;6.68;;;;;;;;;;5091393;28;20377;-70
2022/01/30 03:05:15;;;;;;;21.38;7.38;;;;;;;;;;5115077;28;20039;-69
2022/01/30 03:07:42;;;;;;;17.48;8.10;;;;;;;;;;5111547;28;20043;-70
2022/01/30 03:10:10;;;;;;;23.33;8.13;;;;;;;;;;5115187;28;20356;-70
2022/01/30 03:12:37;;;;;;;16.77;6.65;;;;;;;;;;5108037;28;20511;-69
2022/01/30 03:15:04;;;;;;;19.17;7.40;;;;;;;;;;5114918;28;20415;-70
2022/01/30 03:17:30;;;;;;;23.92;8.65;;;;;;;;;;5104508;28;20048;-69
2022/01/30 03:19:57;;;;;;;16.75;7.43;;;;;;;;;;5114731;28;20080;-69
2022/01/30 03:22:24;;;;;;;18.75;7.45;;;;;;;;;;5091134;28;20097;-69
2022/01/30 03:24:52;;;;;;;16.88;6.35;;;;;;;;;;5113114;28;20423;-69
2022/01/30 03:27:18;;;;;;;16.10;7.80;;;;;;;;;;5106941;28;20043;-69
2022/01/30 03:30:01;;;;;;;17.77;6.97;;;;;;;;;;5115169;28;20052;-69
2022/01/30 03:32:28;;;;;;;18.30;7.82;;;;;;;;;;5106697;28;20075;-70
2022/01/30 03:34:55;;;;;;;19.13;7.32;;;;;;;;;;5114905;28;20048;-70
2022/01/30 03:37:21;;;;;;;18.85;6.30;;;;;;;;;;5105885;28;20424;-70
2022/01/30 03:39:48;;;;;;;17.58;6.03;;;;;;;;;;5114461;28;20476;-70
2022/01/30 03:42:14;;;;;;;18.95;6.60;;;;;;;;;;5097989;28;20111;-71
2022/01/30 03:44:41;;;;;;;22.90;9.73;;;;;;;;;;5114513;28;20048;-70
2022/01/30 03:47:07;;;;;;;26.60;9.10;;;;;;;;;;5104201;28;20093;-70
2022/01/30 03:49:35;;;;;;;17.70;7.43;;;;;;;;;;5114130;28;20127;-70
2022/01/30 03:52:02;;;;;;;14.45;7.07;;;;;;;;;;5104887;28;20055;-71
2022/01/30 03:54:29;;;;;;;16.65;6.93;;;;;;;;;;5111777;28;20043;-70
2022/01/30 03:56:55;;;;;;;15.27;7.03;;;;;;;;;;5105668;28;20048;-71
2022/01/30 03:59:22;;;;;;;16.23;6.53;;;;;;;;;;5109689;28;20075;-69
2022/01/30 04:01:48;;;;;;;12.50;6.88;;;;;;;;;;5101976;28;20455;-71
2022/01/30 04:04:15;;;;;;;13.93;6.78;;;;;;;;;;5102948;28;20055;-69
2022/01/30 04:06:42;;;;;;;15.35;6.43;;;;;;;;;;5109447;28;20484;-70
2022/01/30 04:09:08;;;;;;;22.40;7.07;;;;;;;;;;5113913;28;20052;-70
2022/01/30 04:11:35;;;;;;;15.18;5.93;;;;;;;;;;5109539;28;20043;-70
2022/01/30 04:14:01;;;;;;;13.68;5.45;;;;;;;;;;5107372;28;20077;-70
2022/01/30 04:16:28;;;;;;;15.50;6.07;;;;;;;;;;5107376;28;20051;-69
2022/01/30 04:18:56;;;;;;;10.07;5.70;;;;;;;;;;5094232;28;20059;-69
2022/01/30 04:21:23;;;;;;;13.27;5.68;;;;;;;;;;5110033;28;20096;-69
2022/01/30 04:23:49;;;;;;;18.02;6.55;;;;;;;;;;5112634;28;20048;-69
2022/01/30 04:26:16;;;;;;;15.45;6.43;;;;;;;;;;5110789;28;20075;-70
2022/01/30 04:28:43;;;;;;;18.95;8.38;;;;;;;;;;5094664;28;20494;-70
2022/01/30 04:31:09;;;;;;;15.48;6.90;;;;;;;;;;5112120;28;20051;-69
2022/01/30 04:33:36;;;;;;;15.82;5.30;;;;;;;;;;5089971;28;20071;-70
2022/01/30 04:36:05;;;;;;;18.27;6.82;;;;;;;;;;5113395;28;20412;-71
2022/01/30 04:38:54;;;;;;;18.20;6.15;;;;;;;;;;5087955;28;20047;-69
2022/01/30 04:41:59;;;;;;;13.77;5.88;;;;;;;;;;5109516;28;20040;-70
2022/01/30 05:00:59;;;;;;;14.90;5.68;;;;;;;;;;5089143;28;20055;-69
2022/01/30 05:08:19;;;;;;;13.70;5.38;;;;;;;;;;5103535;28;20044;-69
2022/01/30 05:10:46;;;;;;;15.60;5.80;;;;;;;;;;5113100;28;20047;-70
2022/01/30 05:13:16;;;;;;;9.95;5.05;;;;;;;;;;5106172;28;20096;-71
2022/01/30 05:15:43;;;;;;;15.95;5.45;;;;;;;;;;5112938;28;20108;-70
2022/01/30 05:18:10;;;;;;;10.85;5.22;;;;;;;;;;5105078;28;20088;-70
2022/01/30 05:20:37;;;;;;;15.82;5.03;;;;;;;;;;5112409;28;20096;-70
2022/01/30 05:23:04;;;;;;;13.40;4.97;;;;;;;;;;5104267;28;20104;-69
2022/01/30 05:25:30;;;;;;;15.05;5.22;;;;;;;;;;5112765;28;20100;-70
2022/01/30 05:27:57;;;;;;;14.25;5.20;;;;;;;;;;5102054;28;20048;-70
2022/01/30 05:30:23;;;;;;;12.30;5.10;;;;;;;;;;5112612;28;20089;-70
2022/01/30 05:32:50;;;;;;;14.40;5.13;;;;;;;;;;5092553;28;20483;-70
2022/01/30 05:35:17;;;;;;;12.40;5.93;;;;;;;;;;5112353;28;20449;-70
2022/01/30 05:37:43;;;;;;;13.32;4.63;;;;;;;;;;5082447;28;20040;-70
2022/01/30 05:40:10;;;;;;;15.32;5.57;;;;;;;;;;5112931;28;20113;-70
2022/01/30 05:42:38;;;;;;;17.88;5.03;;;;;;;;;;5079825;28;20076;-70
2022/01/30 05:47:42;;;;;;;16.92;5.68;;;;;;;;;;5098348;28;20093;-70
2022/01/30 05:50:09;;;;;;;13.43;4.47;;;;;;;;;;5099119;28;20040;-70
2022/01/30 05:52:39;;;;;;;14.98;5.53;;;;;;;;;;5098600;28;20082;-70
2022/01/30 05:55:06;;;;;;;16.85;5.47;;;;;;;;;;5097786;28;20120;-70
2022/01/30 05:57:32;;;;;;;11.90;4.75;;;;;;;;;;5098250;28;20095;-70
2022/01/30 05:59:59;;;;;;;16.33;5.72;;;;;;;;;;5110316;28;20105;-70
2022/01/30 06:02:25;;;;;;;16.70;7.05;;;;;;;;;;5100002;28;20051;-70
2022/01/30 06:04:52;;;;;;;11.40;5.40;;;;;;;;;;5107466;28;20492;-70
2022/01/30 06:07:26;;;;;;;13.23;6.13;;;;;;;;;;5091417;28;20129;-71
2022/01/30 06:09:53;;;;;;;9.95;4.75;;;;;;;;;;5111903;28;20052;-71
2022/01/30 06:12:19;;;;;;;10.75;5.03;;;;;;;;;;5106860;28;20066;-70
2022/01/30 06:14:46;;;;;;;14.32;7.13;;;;;;;;;;5110690;28;20048;-70
2022/01/30 06:17:16;;;;;;;16.85;6.18;;;;;;;;;;5107096;28;20043;-70
2022/01/30 06:19:42;;;;;;;11.70;6.95;;;;;;;;;;5093999;28;20081;-70
2022/01/30 06:22:08;;;;;;;10.48;5.47;;;;;;;;;;5106826;28;20104;-70
2022/01/30 06:24:35;;;;;;;15.63;6.47;;;;;;;;;;5111279;28;20487;-70
2022/01/30 06:27:01;;;;;;;14.50;5.53;;;;;;;;;;5102547;28;20044;-70
2022/01/30 06:29:28;;;;;;;10.68;5.40;;;;;;;;;;5111339;28;20444;-71
2022/01/30 06:31:54;;;;;;;14.27;5.22;;;;;;;;;;5097893;28;20056;-70
2022/01/30 06:34:22;;;;;;;13.02;5.55;;;;;;;;;;5106377;28;20122;-70
2022/01/30 06:36:48;;;;;;;13.23;6.10;;;;;;;;;;5083808;28;20052;-70
2022/01/30 06:39:15;;;;;;;11.95;5.57;;;;;;;;;;5102695;28;20051;-70
2022/01/30 06:41:41;;;;;;;20.20;6.80;;;;;;;;;;5101505;28;20080;-70
2022/01/30 06:44:08;;;;;;;14.15;6.15;;;;;;;;;;5099238;28;20075;-70
2022/01/30 06:46:35;;;;;;;15.75;5.93;;;;;;;;;;5106692;28;20052;-70
2022/01/30 06:49:01;;;;;;;10.50;5.25;;;;;;;;;;5103569;28;20039;-70
2022/01/30 06:51:28;;;;;;;16.60;6.95;;;;;;;;;;5107662;28;20057;-70
2022/01/30 06:53:54;;;;;;;13.68;6.13;;;;;;;;;;5101034;28;20083;-70
2022/01/30 06:56:20;;;;;;;15.27;6.25;;;;;;;;;;5106892;28;20090;-70
2022/01/30 06:58:47;;;;;;;14.40;6.00;;;;;;;;;;5087681;28;20112;-70
2022/01/30 07:01:13;;;;;;;14.63;6.28;;;;;;;;;;5109639;28;20396;-70
2022/01/30 07:03:40;;;;;;;11.98;5.15;;;;;;;;;;5097426;28;20090;-70
2022/01/30 07:06:07;;;;;;;14.93;5.38;;;;;;;;;;5112616;28;20128;-70
2022/01/30 07:08:33;;;;;;;12.00;5.43;;;;;;;;;;5113445;28;20048;-70
2022/01/30 07:10:59;;;;;;;10.95;5.47;;;;;;;;;;5114943;28;20047;-70
2022/01/30 07:13:26;;;;;;;12.45;5.05;;;;;;;;;;5110163;28;20503;-70
2022/01/30 07:15:52;;;;;;;10.23;4.28;;;;;;;;;;5115255;28;20047;-70
2022/01/30 07:18:19;;;;;;;11.82;4.78;;;;;;;;;;5109357;28;20100;-70
2022/01/30 07:20:45;;;;;;;12.05;5.40;;;;;;;;;;5114563;28;20086;-70
2022/01/30 07:23:12;;;;;;;11.90;5.47;;;;;;;;;;5109373;28;20388;-69
2022/01/30 07:25:38;;;;;;;10.57;5.03;;;;;;;;;;5115013;28;20112;-69
2022/01/30 07:28:04;;;;;;;10.98;5.50;;;;;;;;;;5104384;28;20540;-69
2022/01/30 07:30:31;;;;;;;12.90;5.60;;;;;;;;;;5114758;28;20055;-69
2022/01/30 07:32:57;;;;;;;11.60;6.15;;;;;;;;;;5103611;28;20069;-69
2022/01/30 07:35:24;;;;;;;10.98;4.65;;;;;;;;;;5114099;28;20102;-70
2022/01/30 07:37:51;;;;;;;13.77;5.73;;;;;;;;;;5112168;28;20452;-69
2022/01/30 07:40:17;;;;;;;12.43;5.60;;;;;;;;;;5113508;28;20751;-70
2022/01/30 07:42:44;;;;;;;13.88;6.20;;;;;;;;;;5106504;28;20100;-69
2022/01/30 07:45:11;;;;;;;14.90;5.72;;;;;;;;;;5094937;28;20105;-69
2022/01/30 07:47:37;;;;;;;12.48;6.20;;;;;;;;;;5099621;28;20452;-69
2022/01/30 07:50:04;;;;;;;12.75;5.13;;;;;;;;;;5114123;28;20537;-69
2022/01/30 07:52:30;;;;;;;15.75;5.88;;;;;;;;;;5106205;28;20051;-69
2022/01/30 07:54:57;;;;;;;15.93;8.15;;;;;;;;;;5113771;28;20058;-69
2022/01/30 07:57:23;;;;;;;17.92;7.60;;;;;;;;;;5099377;28;20101;-69
2022/01/30 07:59:50;;;;;;;16.52;6.55;;;;;;;;;;5111055;28;20510;-70
2022/01/30 08:02:16;;;;;;;13.75;6.28;;;;;;;;;;5109867;28;20207;-69
2022/01/30 08:04:43;;;;;;;17.38;7.47;;;;;;;;;;5113766;28;20079;-70
2022/01/30 08:07:10;;;;;;;15.13;6.65;;;;;;;;;;5108408;28;20040;-69
2022/01/30 08:09:36;;;;;;;21.13;8.10;;;;;;;;;;5112874;28;20043;-69
2022/01/30 08:12:03;;;;;;;16.40;7.85;;;;;;;;;;5112328;28;20052;-71
2022/01/30 08:14:29;;;;;;;16.95;7.65;;;;;;;;;;5113484;28;20097;-70
2022/01/30 08:16:56;;;;;;;14.50;8.00;;;;;;;;;;5110865;28;20520;-70
2022/01/30 08:19:25;;;;;;;15.43;7.32;;;;;;;;;;5113806;28;20453;-70
2022/01/30 08:21:52;;;;;;;;;;;;;;;;;;5110176;28;20429;-70
2022/01/30 08:24:19;;;;;;;14.60;6.13;;;;;;;;;;5113578;28;19927;-70
2022/01/30 08:26:46;;;;;;;16.47;7.43;;;;;;;;;;5102347;28;20102;-70
2022/01/30 08:29:12;;;;;;;14.65;7.88;;;;;;;;;;5106764;28;20306;-67
2022/01/30 08:31:39;;;;;;;12.23;7.00;;;;;;;;;;5108999;28;20408;-66
2022/01/30 08:34:05;;;;;;;17.77;7.88;;;;;;;;;;5108037;28;20047;-67
2022/01/30 08:36:32;;;;;;;14.80;7.35;;;;;;;;;;5107891;28;20480;-69
2022/01/30 08:38:58;;;;;;;16.02;7.65;;;;;;;;;;5113231;28;20356;-69
2022/01/30 08:41:25;;;;;;;16.52;7.80;;;;;;;;;;5109137;28;20048;-69
2022/01/30 08:43:51;;;;;;;15.30;6.75;;;;;;;;;;5104008;28;20444;-69
2022/01/30 08:46:20;;;;;;;15.98;8.75;;;;;;;;;;5110085;28;20043;-68
2022/01/30 08:48:47;;;;;;;15.65;7.18;;;;;;;;;;5102036;28;20049;-68
2022/01/30 08:51:13;;;;;;;14.20;7.10;;;;;;;;;;5110858;28;20121;-69
2022/01/30 08:53:40;;;;;;;12.88;6.32;;;;;;;;;;5109328;28;20039;-69
2022/01/30 08:56:06;;;;;;;11.68;6.47;;;;;;;;;;5112472;28;20047;-69
2022/01/30 08:58:33;;;;;;;11.90;6.15;;;;;;;;;;5101399;28;20056;-68
2022/01/30 09:01:00;;;;;;;16.25;7.32;;;;;;;;;;5112106;28;20441;-69
2022/01/30 09:03:26;;;;;;;13.52;6.28;;;;;;;;;;5109594;28;20051;-69
2022/01/30 09:05:53;;;;;;;14.05;5.95;;;;;;;;;;5112098;28;20211;-69
2022/01/30 09:08:19;;;;;;;9.77;5.35;;;;;;;;;;5090172;28;20100;-70
2022/01/30 09:10:46;;;;;;;12.82;6.43;;;;;;;;;;5111945;28;20356;-66
2022/01/30 09:13:12;;;;;;;12.00;5.97;;;;;;;;;;5109904;28;20048;-69
2022/01/30 09:15:41;;;;;;;12.27;6.28;;;;;;;;;;5112682;28;20478;-67
2022/01/30 09:18:10;;;;;;;10.20;5.22;;;;;;;;;;5100421;28;20049;-72
2022/01/30 09:20:38;;;;;;;8.05;5.82;;;;;;;;;;5112405;28;20047;-69
2022/01/30 09:23:04;;;;;;;;;;;;;;;;;;5108780;28;20040;-70
2022/01/30 09:25:31;;;;;;;19.85;10.13;;;;;;;;;;5111478;28;20358;-69
2022/01/30 09:27:57;;;;;;;18.75;9.80;;;;;;;;;;5109416;28;20040;-69
2022/01/30 09:30:24;;;;;;;17.92;9.23;;;;;;;;;;5112516;28;20411;-70
2022/01/30 09:32:50;;;;;;;11.27;6.93;;;;;;;;;;5097618;28;20052;-69
2022/01/30 09:35:16;;;;;;;19.92;10.77;;;;;;;;;;5110857;28;20083;-70
2022/01/30 09:37:43;;;;;;;19.88;11.75;;;;;;;;;;5109437;28;20047;-70
2022/01/30 09:40:10;;;;;;;20.23;10.43;;;;;;;;;;5107420;28;20101;-70
2022/01/30 09:42:37;;;;;;;16.17;9.00;;;;;;;;;;5109722;28;20051;-70
2022/01/30 09:45:04;;;;;;;13.13;7.40;;;;;;;;;;5110895;28;20089;-70
2022/01/30 09:47:31;;;;;;;14.23;7.35;;;;;;;;;;5105893;28;20136;-69
2022/01/30 09:49:59;;;;;;;20.00;11.30;;;;;;;;;;5111228;28;20479;-70
2022/01/30 09:52:25;;;;;;;17.73;11.77;;;;;;;;;;5106253;28;20296;-71
2022/01/30 09:54:52;;;;;;;19.92;11.15;;;;;;;;;;5112247;28;20067;-71
2022/01/30 09:57:19;;;;;;;21.00;11.02;;;;;;;;;;5092677;28;20048;-69
2022/01/30 09:59:46;;;;;;;16.70;10.37;;;;;;;;;;5111946;28;20127;-70
2022/01/30 10:02:13;;;;;;;15.75;9.80;;;;;;;;;;5083155;28;20083;-69
2022/01/30 10:04:40;;;;;;;18.08;9.90;;;;;;;;;;5111540;28;20044;-70
2022/01/30 10:07:16;;;;;;;15.75;8.77;;;;;;;;;;5105960;28;20051;-69
2022/01/30 10:09:45;;;;;;;11.68;6.28;;;;;;;;;;5109946;28;20048;-68
2022/01/30 10:12:16;;;;;;;10.63;6.97;;;;;;;;;;5109491;28;20101;-72
2022/01/30 10:15:00;;;;;;;9.63;5.97;;;;;;;;;;5111828;28;20051;-70
2022/01/30 10:17:32;;;;;;;10.68;6.43;;;;;;;;;;5104871;28;20056;-70
2022/01/30 10:20:25;;;;;;;13.98;9.65;;;;;;;;;;5076824;28;20150;-71
2022/01/30 10:22:52;;;;;;;13.50;6.85;;;;;;;;;;5110639;28;20048;-71
2022/01/30 10:25:26;;;;;;;10.20;5.35;;;;;;;;;;5105060;28;20043;-72
2022/01/30 10:28:09;;;;;;;12.10;6.30;;;;;;;;;;5092570;28;20044;-72
2022/01/30 10:30:40;;;;;;;10.98;5.93;;;;;;;;;;5107001;28;20044;-72
2022/01/30 10:33:09;;;;;;;12.18;6.28;;;;;;;;;;5111318;28;20433;-72
2022/01/30 10:35:45;;;;;;;11.82;5.45;;;;;;;;;;5102599;28;20053;-72
2022/01/30 10:38:21;;;;;;;14.30;5.55;;;;;;;;;;5100026;28;20523;-71
2022/01/30 10:40:54;;;;;;;9.82;5.68;;;;;;;;;;5109895;28;20556;-72
2022/01/30 10:43:20;;;;;;;10.40;5.65;;;;;;;;;;5114790;28;20088;-71
2022/01/30 10:45:47;;;;;;;11.80;7.25;;;;;;;;;;5111458;28;20105;-72
2022/01/30 10:48:20;;;;;;;15.93;9.57;;;;;;;;;;5104385;28;20439;-71
2022/01/30 10:50:48;;;;;;;18.65;11.27;;;;;;;;;;5114195;28;20040;-71
2022/01/30 10:53:19;;;;;;;17.67;11.25;;;;;;;;;;5112718;28;20047;-71
2022/01/30 10:55:46;;;;;;;14.93;10.63;;;;;;;;;;5109026;28;20047;-71
2022/01/30 10:58:17;;;;;;;15.25;9.60;;;;;;;;;;5112680;28;20094;-72
2022/01/30 11:00:54;;;;;;;11.15;6.05;;;;;;;;;;5111464;28;20108;-70
2022/01/30 11:03:39;;;;;;;13.52;8.13;;;;;;;;;;5111629;28;20046;-71
2022/01/30 11:06:08;;;;;;;13.80;9.68;;;;;;;;;;5112597;28;20044;-71
2022/01/30 11:08:36;;;;;;;18.05;10.60;;;;;;;;;;5107182;28;20109;-71
2022/01/30 11:11:13;;;;;;;17.73;9.93;;;;;;;;;;5103424;28;20040;-72
2022/01/30 11:13:48;;;;;;;;;;;;;;;;;;5106184;28;20068;-71
2022/01/30 11:19:01;;;;;;;15.48;8.48;;;;;;;;;;5099699;28;20083;-71
2022/01/30 11:21:28;;;;;;;10.60;5.32;;;;;;;;;;5106466;28;20081;-71
2022/01/30 11:23:54;;;;;;;;;;;;;;;;;;5103945;28;20103;-71
2022/01/30 11:26:21;;;;;;;7.10;3.22;;;;;;;;;;5114503;28;19920;-71
2022/01/30 11:28:48;;;;;;;11.80;4.93;;;;;;;;;;5108632;28;20044;-70
2022/01/30 11:31:15;;;;;;;8.75;4.35;;;;;;;;;;5114176;28;20047;-71
2022/01/30 11:33:43;;;;;;;9.55;3.40;;;;;;;;;;5110070;28;20048;-70
2022/01/30 11:36:09;;;;;;;8.05;3.25;;;;;;;;;;5113850;28;20100;-71
2022/01/30 11:38:37;;;;;;;9.43;2.58;;;;;;;;;;5088643;28;20048;-71
2022/01/30 11:41:14;;;;;;;5.80;2.10;;;;;;;;;;5100363;28;20564;-70
2022/01/30 11:43:41;;;;;;;7.25;2.33;;;;;;;;;;5114109;28;20448;-68
2022/01/30 11:46:11;;;;;;;5.50;1.83;;;;;;;;;;5111592;28;20205;-70
2022/01/30 11:48:37;;;;;;;6.43;1.88;;;;;;;;;;5113830;28;20047;-69
2022/01/30 11:51:04;;;;;;;5.05;1.60;;;;;;;;;;5113427;28;20092;-70
2022/01/30 11:53:31;;;;;;;5.75;1.75;;;;;;;;;;5113593;28;20484;-72
2022/01/30 11:56:00;;;;;;;5.18;1.50;;;;;;;;;;5113976;28;20124;-71
2022/01/30 11:58:29;;;;;;;6.20;1.52;;;;;;;;;;5113803;28;20058;-72
2022/01/30 12:01:00;;;;;;;9.65;1.98;;;;;;;;;;5114125;28;20052;-71
2022/01/30 12:03:32;;;;;;;6.57;1.70;;;;;;;;;;5113944;28;20079;-71
2022/01/30 12:06:18;;;;;;;5.80;1.77;;;;;;;;;;5114024;28;20131;-71
2022/01/30 12:08:46;;;;;;;5.80;1.83;;;;;;;;;;5113478;28;20075;-68
2022/01/30 12:11:31;;;;;;;5.93;1.50;;;;;;;;;;5113698;28;20078;-69
2022/01/30 12:13:57;;;;;;;7.68;2.10;;;;;;;;;;5113603;28;20079;-68
2022/01/30 12:16:46;;;;;;;6.97;1.90;;;;;;;;;;5113691;28;20479;-70
2022/01/30 12:19:13;;;;;;;6.53;1.98;;;;;;;;;;5113265;28;20039;-69
2022/01/30 12:21:40;;;;;;;7.78;2.00;;;;;;;;;;5113489;28;20055;-70
2022/01/30 12:24:22;;;;;;;7.50;2.55;;;;;;;;;;5112954;28;20551;-70
2022/01/30 12:26:50;;;;;;;7.53;1.70;;;;;;;;;;5113350;28;20116;-70
2022/01/30 12:29:35;;;;;;;6.40;1.67;;;;;;;;;;5112973;28;20482;-70
2022/01/30 12:32:20;;;;;;;10.50;2.60;;;;;;;;;;5112742;28;20093;-70
2022/01/30 12:34:56;;;;;;;6.75;1.80;;;;;;;;;;5112029;28;20062;-72
2022/01/30 12:37:27;;;;;;;6.65;1.75;;;;;;;;;;5112689;28;20449;-67
2022/01/30 12:39:54;;;;;;;10.60;2.42;;;;;;;;;;5112885;28;20126;-70
2022/01/30 12:42:22;;;;;;;8.45;1.80;;;;;;;;;;5112266;28;20044;-69
2022/01/30 12:44:49;;;;;;;10.05;3.38;;;;;;;;;;5112793;28;20556;-69
2022/01/30 12:47:16;;;;;;;14.68;10.85;;;;;;;;;;5110918;28;20043;-71
2022/01/30 12:49:47;;;;;;;7.47;2.25;;;;;;;;;;5106388;28;20071;-71
2022/01/30 12:52:29;;;;;;;7.40;2.50;;;;;;;;;;5104823;28;20115;-71
2022/01/30 12:54:57;;;;;;;8.23;2.78;;;;;;;;;;5103270;28;20444;-71
2022/01/30 12:57:25;;;;;;;7.75;2.88;;;;;;;;;;5108532;28;20044;-71
2022/01/30 12:59:52;;;;;;;8.38;4.78;;;;;;;;;;5101592;28;20110;-71
2022/01/30 13:02:18;;;;;;;6.43;1.90;;;;;;;;;;5108615;28;20047;-71
2022/01/30 13:04:46;;;;;;;6.78;2.80;;;;;;;;;;5105393;28;20599;-71
2022/01/30 13:07:13;;;;;;;8.85;5.03;;;;;;;;;;5106050;28;20122;-71
2022/01/30 13:09:40;;;;;;;6.60;2.25;;;;;;;;;;5084189;28;20052;-71
2022/01/30 13:12:13;;;;;;;10.13;4.77;;;;;;;;;;5096783;28;20097;-71
2022/01/30 13:14:43;;;;;;;13.50;6.43;;;;;;;;;;5102554;28;20841;-71
2022/01/30 13:17:13;;;;;;;8.10;5.32;;;;;;;;;;5096333;28;20056;-71
2022/01/30 13:19:42;;;;;;;6.93;2.80;;;;;;;;;;5107410;28;20139;-71
2022/01/30 13:22:10;;;;;;;7.45;3.05;;;;;;;;;;5103322;28;20052;-71
2022/01/30 13:24:39;;;;;;;26.63;23.90;;;;;;;;;;5106921;28;20048;-71
2022/01/30 13:27:06;;;;;;;9.13;4.60;;;;;;;;;;5105255;28;20055;-71
2022/01/30 13:29:35;;;;;;;13.63;11.65;;;;;;;;;;5104301;28;20045;-71
2022/01/30 13:32:06;;;;;;;16.55;13.80;;;;;;;;;;5072199;28;20091;-71
2022/01/30 13:34:33;;;;;;;11.07;3.03;;;;;;;;;;5109701;28;20055;-71
2022/01/30 13:36:59;;;;;;;;;;;;;;;;;;5110076;28;20104;-71
2022/01/30 13:39:34;;;;;;;7.45;2.60;;;;;;;;;;5109201;28;19927;-71
2022/01/30 13:47:42;;;;;;;10.95;3.60;;;;;;;;;;5111722;28;20059;-72
2022/01/30 13:50:15;;;;;;;7.50;6.10;;;;;;;;;;5110272;28;20047;-71
2022/01/30 13:52:42;;;;;;;7.65;3.65;;;;;;;;;;5110573;28;20491;-71
2022/01/30 13:55:08;;;;;;;16.57;12.57;;;;;;;;;;5110381;28;20070;-70
2022/01/30 13:57:36;;;;;;;11.97;8.97;;;;;;;;;;5110419;28;20052;-72
2022/01/30 14:00:07;;;;;;;11.20;7.60;;;;;;;;;;5110779;28;20073;-71
2022/01/30 14:02:34;;;;;;;9.48;4.10;;;;;;;;;;5111049;28;20445;-72
2022/01/30 14:05:19;;;;;;;9.32;4.18;;;;;;;;;;5093414;28;20051;-71
2022/01/30 14:07:45;;;;;;;9.23;3.58;;;;;;;;;;5107833;28;20462;-70
2022/01/30 14:10:12;;;;;;;8.57;3.10;;;;;;;;;;5091597;28;20048;-72
2022/01/30 14:12:40;;;;;;;9.15;3.42;;;;;;;;;;5108227;28;20125;-71
2022/01/30 14:15:08;;;;;;;7.05;2.92;;;;;;;;;;5105051;28;20047;-72
2022/01/30 14:17:41;;;;;;;7.45;3.42;;;;;;;;;;5115532;28;20059;-71
2022/01/30 14:20:10;;;;;;;8.68;3.63;;;;;;;;;;5115627;28;20043;-72
2022/01/30 14:22:37;;;;;;;11.05;5.10;;;;;;;;;;5115276;28;20910;-72
2022/01/30 14:25:08;;;;;;;10.00;5.83;;;;;;;;;;5115518;28;20070;-71
2022/01/30 14:27:36;;;;;;;10.48;5.43;;;;;;;;;;5113749;28;20047;-71
2022/01/30 14:30:05;;;;;;;17.92;10.70;;;;;;;;;;5115524;28;20073;-72
2022/01/30 14:32:33;;;;;;;9.43;5.22;;;;;;;;;;5113154;28;20059;-71
2022/01/30 14:35:02;;;;;;;9.43;3.42;;;;;;;;;;5115265;28;20483;-73
2022/01/30 14:37:30;;;;;;;9.60;3.33;;;;;;;;;;5115546;28;20083;-72
2022/01/30 14:39:58;;;;;;;8.55;3.58;;;;;;;;;;5115151;28;20054;-73
2022/01/30 14:42:25;;;;;;;11.95;3.38;;;;;;;;;;5115547;28;20054;-73
2022/01/30 14:44:51;;;;;;;10.93;3.60;;;;;;;;;;5115010;28;20040;-72
2022/01/30 14:47:18;;;;;;;9.13;3.58;;;;;;;;;;5115041;28;20044;-71
2022/01/30 14:49:46;;;;;;;8.85;2.88;;;;;;;;;;5115272;28;20066;-71
2022/01/30 14:52:13;;;;;;;10.88;3.60;;;;;;;;;;5111177;28;20672;-72
2022/01/30 14:54:40;;;;;;;9.38;2.92;;;;;;;;;;5096482;28;20135;-72
2022/01/30 14:57:06;;;;;;;6.97;2.80;;;;;;;;;;5099290;28;20100;-71
2022/01/30 14:59:33;;;;;;;8.18;3.35;;;;;;;;;;5110962;28;20100;-72
2022/01/30 15:01:59;;;;;;;11.73;3.63;;;;;;;;;;5114273;28;20493;-72
2022/01/30 15:04:26;;;;;;;5.80;2.47;;;;;;;;;;5114575;28;20183;-72
2022/01/30 15:06:52;;;;;;;9.10;3.35;;;;;;;;;;5112312;28;20443;-72
2022/01/30 15:09:19;;;;;;;4.68;2.05;;;;;;;;;;5114191;28;20058;-71
2022/01/30 15:11:46;;;;;;;8.77;2.33;;;;;;;;;;5114191;28;20483;-72
2022/01/30 15:14:12;;;;;;;7.70;3.17;;;;;;;;;;5100680;28;20043;-73
2022/01/30 15:16:41;;;;;;;7.10;2.10;;;;;;;;;;5112726;28;20048;-73
2022/01/30 15:19:09;;;;;;;5.93;2.33;;;;;;;;;;5112614;28;20044;-74
2022/01/30 15:21:36;;;;;;;8.38;1.90;;;;;;;;;;5113538;28;20052;-74
2022/01/30 15:24:03;;;;;;;9.00;2.17;;;;;;;;;;5113408;28;20048;-73
2022/01/30 15:26:30;;;;;;;7.00;2.10;;;;;;;;;;5113134;28;20054;-73
2022/01/30 15:28:58;;;;;;;10.15;2.45;;;;;;;;;;5096083;28;20131;-73
2022/01/30 15:31:25;;;;;;;7.40;2.20;;;;;;;;;;5113271;28;20059;-74
2022/01/30 15:33:52;;;;;;;;;;;;;;;;;;5111881;28;20058;-73
2022/01/30 15:36:21;;;;;;;8.43;2.50;;;;;;;;;;5095690;28;19924;-73
2022/01/30 15:38:50;;;;;;;9.23;2.20;;;;;;;;;;5113711;28;20047;-72
2022/01/30 15:41:16;;;;;;;8.23;2.38;;;;;;;;;;5113674;28;20071;-73